createdAt,value
2022-11-29T00:01:27.608Z,6.20
2022-11-29T00:03:55.865Z,6.20
2022-11-29T00:06:30.908Z,6.20
2022-11-29T00:09:01.271Z,6.20
2022-11-29T00:11:55.228Z,6.10
2022-11-29T00:14:23.983Z,6.10
2022-11-29T00:16:59.434Z,6.10
2022-11-29T00:19:26.734Z,6.10
2022-11-29T00:21:53.823Z,6.10
2022-11-29T00:24:21.508Z,6.10
2022-11-29T00:26:49.241Z,6.10
2022-11-29T00:29:17.238Z,6.10
2022-11-29T00:31:44.757Z,6.10
2022-11-29T00:34:12.800Z,6.10
2022-11-29T00:36:40.833Z,6.10
2022-11-29T00:39:11.935Z,6.20
2022-11-29T00:41:40.204Z,6.20
2022-11-29T00:44:08.180Z,6.20
2022-11-29T00:46:35.361Z,6.20
2022-11-29T00:49:02.537Z,6.20
2022-11-29T00:51:29.689Z,6.30
2022-11-29T00:53:56.842Z,6.20
2022-11-29T00:56:24.127Z,6.10
2022-11-29T00:58:51.458Z,6.20
2022-11-29T01:01:18.921Z,6.20
2022-11-29T01:03:46.411Z,6.20
2022-11-29T01:06:17.295Z,6.20
2022-11-29T01:08:48.313Z,6.20
2022-11-29T01:11:23.268Z,6.20
2022-11-29T01:13:55.035Z,6.20
2022-11-29T01:16:22.767Z,6.10
2022-11-29T01:18:50.104Z,6.20
2022-11-29T01:21:22.286Z,6.20
2022-11-29T01:23:51.709Z,6.20
2022-11-29T01:26:25.582Z,6.10
2022-11-29T01:28:55.293Z,6.20
2022-11-29T01:31:29.937Z,6.10
2022-11-29T01:34:00.239Z,6.10
2022-11-29T01:36:28.378Z,6.10
2022-11-29T01:38:55.648Z,6.10
2022-11-29T01:41:31.182Z,6.10
2022-11-29T01:44:05.673Z,6.10
2022-11-29T01:46:36.897Z,6.10
2022-11-29T01:49:21.279Z,6.10
2022-11-29T01:51:53.766Z,6.10
2022-11-29T01:54:22.096Z,6.10
2022-11-29T01:56:51.883Z,6.10
2022-11-29T01:59:25.817Z,6.10
2022-11-29T02:01:54.635Z,6.00
2022-11-29T02:04:21.927Z,6.00
2022-11-29T02:06:49.376Z,6.00
2022-11-29T02:09:23.965Z,6.00
2022-11-29T02:12:22.850Z,6.00
2022-11-29T02:15:37.714Z,6.10
2022-11-29T02:18:45.446Z,6.10
2022-11-29T02:21:28.576Z,6.10
2022-11-29T02:24:20.336Z,6.10
2022-11-29T02:27:21.632Z,6.20
2022-11-29T02:30:27.185Z,6.20
2022-11-29T02:33:37.637Z,6.20
2022-11-29T02:36:24.898Z,6.40
2022-11-29T02:39:33.255Z,6.40
2022-11-29T02:42:24.741Z,6.40
2022-11-29T02:45:25.946Z,6.40
2022-11-29T02:48:38.567Z,6.40
2022-11-29T02:51:26.112Z,6.50
2022-11-29T02:54:09.122Z,6.40
2022-11-29T02:56:54.956Z,6.40
2022-11-29T03:00:03.784Z,6.50
2022-11-29T03:02:51.992Z,6.50
2022-11-29T03:06:08.907Z,6.50
2022-11-29T03:09:01.660Z,6.50
2022-11-29T03:12:10.753Z,6.50
2022-11-29T03:15:11.255Z,6.40
2022-11-29T03:18:07.307Z,6.40
2022-11-29T03:20:36.152Z,6.50
2022-11-29T03:23:14.281Z,6.40
2022-11-29T03:26:03.859Z,6.50
2022-11-29T03:28:55.089Z,6.50
2022-11-29T03:32:08.382Z,6.50
2022-11-29T03:35:08.548Z,6.50
2022-11-29T03:37:58.757Z,6.50
2022-11-29T03:41:05.743Z,6.40
2022-11-29T03:43:41.679Z,6.50
2022-11-29T03:46:21.772Z,6.60
2022-11-29T03:48:56.211Z,6.60
2022-11-29T03:51:41.380Z,6.60
2022-11-29T03:54:14.838Z,6.60
2022-11-29T03:56:42.595Z,6.60
2022-11-29T04:00:07.972Z,6.60
2022-11-29T04:03:44.159Z,6.60
2022-11-29T04:06:41.980Z,6.60
2022-11-29T04:09:51.072Z,6.60
2022-11-29T04:12:25.889Z,6.60
2022-11-29T04:15:38.845Z,6.60
2022-11-29T04:18:45.858Z,6.60
2022-11-29T04:21:46.687Z,6.60
2022-11-29T04:24:42.046Z,6.60
2022-11-29T04:27:39.020Z,6.50
2022-11-29T04:30:23.673Z,6.50
2022-11-29T04:33:41.827Z,6.50
2022-11-29T04:36:41.838Z,6.50
2022-11-29T04:39:47.714Z,6.50
2022-11-29T04:42:45.139Z,6.50
2022-11-29T04:45:37.020Z,6.50
2022-11-29T04:48:46.648Z,6.50
2022-11-29T04:51:43.146Z,6.50
2022-11-29T04:54:55.475Z,6.50
2022-11-29T04:58:03.969Z,6.50
2022-11-29T05:00:45.417Z,6.40
2022-11-29T05:03:26.328Z,6.50
2022-11-29T05:06:15.429Z,6.50
2022-11-29T05:09:31.537Z,6.50
2022-11-29T05:12:25.792Z,6.50
2022-11-29T05:15:14.394Z,6.50
2022-11-29T05:18:00.303Z,6.60
2022-11-29T05:20:53.093Z,6.50
2022-11-29T05:24:00.794Z,6.50
2022-11-29T05:26:38.448Z,6.50
2022-11-29T05:29:22.156Z,6.50
2022-11-29T05:32:13.875Z,6.50
2022-11-29T05:35:08.565Z,6.50
2022-11-29T05:37:54.836Z,6.60
2022-11-29T05:40:55.942Z,6.50
2022-11-29T05:43:28.249Z,6.50
2022-11-29T05:46:16.140Z,6.50
2022-11-29T05:49:03.859Z,6.50
2022-11-29T05:52:24.598Z,6.50
2022-11-29T05:55:42.983Z,6.50
2022-11-29T05:58:50.909Z,6.40
2022-11-29T06:02:17.678Z,6.40
2022-11-29T06:05:16.942Z,6.50
2022-11-29T06:07:52.165Z,6.40
2022-11-29T06:10:23.465Z,6.40
2022-11-29T06:13:27.987Z,6.50
2022-11-29T06:16:32.579Z,6.50
2022-11-29T06:19:24.255Z,6.60
2022-11-29T06:22:34.892Z,6.50
2022-11-29T06:25:17.420Z,6.60
2022-11-29T06:28:28.688Z,6.60
2022-11-29T06:31:25.498Z,6.60
2022-11-29T06:34:30.364Z,6.60
2022-11-29T06:37:06.937Z,6.60
2022-11-29T06:39:36.991Z,6.60
2022-11-29T06:42:04.096Z,6.60
2022-11-29T06:44:31.777Z,6.60
2022-11-29T06:47:19.206Z,6.60
2022-11-29T06:50:33.590Z,6.60
2022-11-29T06:53:19.366Z,6.60
2022-11-29T06:56:21.354Z,6.60
2022-11-29T06:59:50.853Z,6.60
2022-11-29T07:02:38.908Z,6.60
2022-11-29T07:05:29.078Z,6.60
2022-11-29T07:08:08.849Z,6.50
2022-11-29T07:10:39.747Z,6.50
2022-11-29T07:13:07.637Z,6.60
2022-11-29T07:15:37.946Z,6.60
2022-11-29T07:18:33.418Z,6.60
2022-11-29T07:21:35.561Z,6.60
2022-11-29T07:24:38.467Z,6.50
2022-11-29T07:27:23.213Z,6.50
2022-11-29T07:30:12.109Z,6.50
2022-11-29T07:33:21.202Z,6.50
2022-11-29T07:36:40.986Z,6.50
2022-11-29T07:39:32.450Z,6.60
2022-11-29T07:42:55.135Z,6.60
2022-11-29T07:45:31.978Z,6.50
2022-11-29T07:47:59.841Z,6.60
2022-11-29T07:50:30.934Z,6.60
2022-11-29T07:52:59.339Z,6.60
2022-11-29T07:55:29.705Z,6.60
2022-11-29T07:57:56.841Z,6.60
2022-11-29T08:00:24.214Z,6.60
2022-11-29T08:02:51.828Z,6.70
2022-11-29T08:05:19.215Z,6.70
2022-11-29T08:07:47.787Z,6.70
2022-11-29T08:10:16.975Z,6.70
2022-11-29T08:12:47.728Z,6.70
2022-11-29T08:15:15.171Z,6.80
2022-11-29T08:17:42.579Z,6.80
2022-11-29T08:20:11.664Z,6.80
2022-11-29T08:22:38.946Z,6.70
2022-11-29T08:25:07.867Z,6.70
2022-11-29T08:27:36.840Z,6.70
2022-11-29T08:30:06.517Z,6.70
2022-11-29T08:32:34.899Z,6.70
2022-11-29T08:35:01.922Z,6.70
2022-11-29T08:37:29.163Z,6.80
2022-11-29T08:39:58.261Z,6.80
2022-11-29T08:42:25.681Z,6.80
2022-11-29T08:44:52.682Z,6.80
2022-11-29T08:47:37.894Z,6.70
2022-11-29T08:50:17.099Z,6.80
2022-11-29T08:53:06.497Z,6.90
2022-11-29T08:55:37.670Z,6.90
2022-11-29T08:58:12.160Z,6.90
2022-11-29T09:00:40.919Z,6.90
2022-11-29T09:03:27.303Z,6.90
2022-11-29T09:05:55.375Z,6.90
2022-11-29T09:08:22.599Z,6.90
2022-11-29T09:10:50.105Z,6.90
2022-11-29T09:13:18.232Z,7.00
2022-11-29T09:15:45.485Z,7.00
2022-11-29T09:18:12.802Z,7.10
2022-11-29T09:20:46.795Z,7.10
2022-11-29T09:23:14.126Z,7.10
2022-11-29T09:25:41.185Z,7.20
2022-11-29T09:28:08.756Z,7.30
2022-11-29T09:30:38.028Z,7.30
2022-11-29T09:33:05.418Z,7.30
2022-11-29T09:35:33.812Z,7.40
2022-11-29T09:38:01.118Z,7.50
2022-11-29T09:40:40.607Z,7.60
2022-11-29T09:43:23.306Z,7.60
2022-11-29T09:46:16.016Z,7.50
2022-11-29T09:49:27.755Z,7.50
2022-11-29T09:52:38.352Z,7.60
2022-11-29T09:55:32.336Z,7.70
2022-11-29T09:58:05.947Z,7.80
2022-11-29T10:00:38.752Z,7.90
2022-11-29T10:03:28.231Z,7.60
2022-11-29T10:06:16.926Z,7.70
2022-11-29T10:08:44.855Z,8.00
2022-11-29T10:12:06.155Z,7.70
2022-11-29T10:14:58.871Z,7.80
2022-11-29T10:18:02.325Z,7.90
2022-11-29T10:20:42.444Z,7.90
2022-11-29T10:23:46.958Z,8.00
2022-11-29T10:26:14.786Z,8.00
2022-11-29T10:28:45.135Z,8.10
2022-11-29T10:31:35.005Z,8.20
2022-11-29T10:34:12.639Z,8.20
2022-11-29T10:36:43.885Z,8.20
2022-11-29T10:39:35.711Z,8.10
2022-11-29T10:42:06.642Z,7.80
2022-11-29T10:44:34.079Z,8.00
2022-11-29T10:47:10.441Z,8.00
2022-11-29T10:49:40.288Z,7.90
2022-11-29T10:52:20.260Z,7.90
2022-11-29T10:54:49.325Z,7.80
2022-11-29T10:57:21.210Z,7.90
2022-11-29T11:00:11.505Z,7.90
2022-11-29T11:02:39.159Z,8.00
2022-11-29T11:05:18.845Z,8.00
2022-11-29T11:07:55.980Z,8.00
2022-11-29T11:10:29.585Z,8.00
2022-11-29T11:13:27.367Z,8.00
2022-11-29T11:16:08.128Z,7.90
2022-11-29T11:18:36.251Z,8.00
2022-11-29T11:21:07.494Z,8.10
2022-11-29T11:23:42.361Z,8.00
2022-11-29T11:26:13.881Z,8.10
2022-11-29T11:28:53.339Z,8.10
2022-11-29T11:31:38.245Z,8.10
2022-11-29T11:34:29.632Z,8.10
2022-11-29T11:37:30.847Z,8.10
2022-11-29T11:40:01.351Z,8.20
2022-11-29T11:42:41.030Z,8.20
2022-11-29T11:45:13.901Z,8.20
2022-11-29T11:47:52.289Z,8.00
2022-11-29T11:50:52.255Z,8.00
2022-11-29T11:53:35.703Z,8.10
2022-11-29T11:56:12.597Z,8.00
2022-11-29T11:58:57.802Z,8.00
2022-11-29T12:01:30.303Z,8.10
2022-11-29T12:04:13.076Z,8.10
2022-11-29T12:07:02.021Z,8.10
2022-11-29T12:09:55.831Z,8.00
2022-11-29T12:12:43.384Z,8.00
2022-11-29T12:15:30.604Z,8.10
2022-11-29T12:18:13.910Z,8.20
2022-11-29T12:20:58.285Z,8.20
2022-11-29T12:23:30.981Z,8.10
2022-11-29T12:26:41.196Z,8.00
2022-11-29T12:29:19.958Z,8.00
2022-11-29T12:32:19.437Z,7.90
2022-11-29T12:35:09.444Z,8.00
2022-11-29T12:38:04.256Z,8.00
2022-11-29T12:40:57.443Z,8.10
2022-11-29T12:44:05.366Z,8.00
2022-11-29T12:46:34.231Z,8.00
2022-11-29T12:49:31.896Z,8.00
2022-11-29T12:52:48.313Z,8.00
2022-11-29T12:55:26.361Z,8.10
2022-11-29T12:58:46.838Z,8.10
2022-11-29T13:01:47.261Z,8.10
2022-11-29T13:04:38.343Z,8.00
2022-11-29T13:07:46.298Z,8.10
2022-11-29T13:10:48.662Z,8.10
2022-11-29T13:13:29.931Z,8.00
2022-11-29T13:16:21.279Z,8.20
2022-11-29T13:19:24.049Z,8.20
2022-11-29T13:22:07.179Z,8.20
2022-11-29T13:24:59.488Z,8.20
2022-11-29T13:27:32.483Z,8.20
2022-11-29T13:30:01.590Z,8.20
2022-11-29T13:32:48.757Z,8.30
2022-11-29T13:35:15.611Z,8.30
2022-11-29T13:38:07.492Z,8.20
2022-11-29T13:41:11.229Z,8.10
2022-11-29T13:44:15.027Z,8.10
2022-11-29T13:46:56.703Z,8.10
2022-11-29T13:50:07.377Z,8.10
2022-11-29T13:52:49.549Z,8.10
2022-11-29T13:55:30.865Z,8.10
2022-11-29T13:58:29.027Z,8.10
2022-11-29T14:01:12.556Z,8.20
2022-11-29T14:04:07.471Z,8.10
2022-11-29T14:06:39.117Z,8.10
2022-11-29T14:09:29.523Z,8.00
2022-11-29T14:12:23.488Z,8.00
2022-11-29T14:15:03.890Z,8.10
2022-11-29T14:17:53.929Z,8.00
2022-11-29T14:20:23.944Z,8.10
2022-11-29T14:23:06.460Z,8.10
2022-11-29T14:26:01.343Z,8.10
2022-11-29T14:28:34.053Z,8.10
2022-11-29T14:31:03.505Z,8.10
2022-11-29T14:34:12.861Z,8.20
2022-11-29T14:36:42.955Z,8.20
2022-11-29T14:40:03.283Z,8.20
2022-11-29T14:42:31.846Z,8.20
2022-11-29T14:45:06.320Z,8.20
2022-11-29T14:47:47.155Z,8.20
2022-11-29T14:50:39.351Z,8.10
2022-11-29T14:53:28.044Z,8.20
2022-11-29T14:56:35.408Z,8.20
2022-11-29T14:59:51.770Z,8.30
2022-11-29T15:02:29.377Z,8.20
2022-11-29T15:05:04.918Z,8.10
2022-11-29T15:07:33.690Z,8.20
2022-11-29T15:10:05.050Z,8.10
2022-11-29T15:12:37.301Z,8.10
2022-11-29T15:15:31.979Z,8.10
2022-11-29T15:18:58.090Z,8.10
2022-11-29T15:22:09.759Z,8.10
2022-11-29T15:25:02.206Z,8.10
2022-11-29T15:27:29.600Z,8.10
2022-11-29T15:29:56.854Z,8.10
2022-11-29T15:32:30.914Z,8.20
2022-11-29T15:34:58.717Z,8.20
2022-11-29T15:37:35.755Z,8.10
2022-11-29T15:40:19.989Z,8.20
2022-11-29T15:43:20.122Z,8.20
2022-11-29T15:45:52.004Z,8.20
2022-11-29T15:48:20.909Z,8.20
2022-11-29T15:51:09.015Z,8.20
2022-11-29T15:54:12.780Z,8.10
2022-11-29T15:56:55.585Z,8.20
2022-11-29T15:59:34.635Z,8.20
2022-11-29T16:02:26.587Z,8.10
2022-11-29T16:05:03.182Z,8.10
2022-11-29T16:07:32.825Z,8.00
2022-11-29T16:10:16.673Z,8.10
2022-11-29T16:13:07.735Z,8.00
2022-11-29T16:15:40.038Z,8.10
2022-11-29T16:18:20.024Z,8.10
2022-11-29T16:21:04.457Z,8.10
2022-11-29T16:23:42.928Z,8.10
2022-11-29T16:26:28.746Z,8.10
2022-11-29T16:28:58.153Z,8.00
2022-11-29T16:31:34.481Z,8.00
2022-11-29T16:34:31.645Z,8.00
2022-11-29T16:37:06.615Z,8.10
2022-11-29T16:39:37.858Z,8.10
2022-11-29T16:42:30.244Z,8.00
2022-11-29T16:45:16.050Z,8.00
2022-11-29T16:48:02.820Z,8.00
2022-11-29T16:50:32.700Z,8.00
2022-11-29T16:53:47.993Z,8.00
2022-11-29T16:56:17.446Z,8.00
2022-11-29T16:59:16.966Z,7.90
2022-11-29T17:01:36.035Z,7.90
2022-11-29T17:04:05.674Z,7.90
2022-11-29T17:06:33.090Z,7.90
2022-11-29T17:09:01.669Z,7.90
2022-11-29T17:11:30.378Z,8.00
2022-11-29T17:13:57.750Z,8.00
2022-11-29T17:16:25.142Z,8.00
2022-11-29T17:18:55.387Z,8.00
2022-11-29T17:21:32.349Z,8.00
2022-11-29T17:23:59.327Z,8.00
2022-11-29T17:26:26.528Z,8.00
2022-11-29T17:28:54.383Z,8.00
2022-11-29T17:31:24.149Z,8.00
2022-11-29T17:33:51.671Z,7.90
2022-11-29T17:36:20.661Z,7.90
2022-11-29T17:38:48.508Z,7.90
2022-11-29T17:41:21.867Z,8.00
2022-11-29T17:43:50.896Z,8.00
2022-11-29T17:46:28.217Z,8.00
2022-11-29T17:48:56.350Z,8.00
2022-11-29T17:54:12.138Z,8.00
2022-11-29T17:56:39.431Z,7.90
2022-11-29T17:59:07.435Z,7.90
2022-11-29T18:01:36.158Z,7.90
2022-11-29T18:04:06.425Z,7.90
2022-11-29T18:06:40.186Z,7.90
2022-11-29T18:09:10.416Z,7.80
2022-11-29T18:11:49.850Z,7.90
2022-11-29T18:14:23.945Z,7.80
2022-11-29T18:16:51.918Z,7.80
2022-11-29T18:19:22.031Z,7.80
2022-11-29T18:21:50.244Z,7.80
2022-11-29T18:24:18.474Z,7.60
2022-11-29T18:26:46.168Z,7.60
2022-11-29T18:29:13.665Z,7.50
2022-11-29T18:31:43.657Z,7.40
2022-11-29T18:34:13.832Z,7.40
2022-11-29T18:36:47.604Z,7.30
2022-11-29T18:39:17.670Z,7.20
2022-11-29T18:41:50.588Z,7.10
2022-11-29T18:44:21.542Z,7.00
2022-11-29T18:46:49.234Z,6.90
2022-11-29T18:49:19.520Z,6.80
2022-11-29T18:51:47.663Z,6.70
2022-11-29T18:54:17.667Z,6.70
2022-11-29T18:56:46.615Z,6.70
2022-11-29T18:59:17.637Z,6.60
2022-11-29T19:01:48.053Z,6.50
2022-11-29T19:04:21.138Z,6.50
2022-11-29T19:06:48.967Z,6.40
2022-11-29T19:09:21.792Z,6.30
2022-11-29T19:11:51.925Z,6.30
2022-11-29T19:14:19.882Z,6.30
2022-11-29T19:16:49.771Z,6.20
2022-11-29T19:19:18.918Z,6.10
2022-11-29T19:21:46.142Z,6.00
2022-11-29T19:24:15.736Z,5.90
2022-11-29T19:26:45.805Z,6.00
2022-11-29T19:29:14.591Z,5.90
2022-11-29T19:31:42.685Z,5.80
2022-11-29T19:34:10.439Z,5.80
2022-11-29T19:36:42.790Z,5.80
2022-11-29T19:39:17.865Z,5.80
2022-11-29T19:41:47.690Z,5.80
2022-11-29T19:44:15.225Z,5.90
2022-11-29T19:46:47.177Z,5.90
2022-11-29T19:49:15.114Z,5.90
2022-11-29T19:51:42.195Z,6.00
2022-11-29T19:54:11.924Z,6.00
2022-11-29T19:56:39.972Z,6.10
2022-11-29T19:59:08.479Z,6.10
2022-11-29T20:01:41.766Z,6.20
2022-11-29T20:04:11.984Z,6.20
2022-11-29T20:06:40.276Z,6.30
2022-11-29T20:09:07.973Z,6.30
2022-11-29T20:11:35.524Z,6.30
2022-11-29T20:14:04.768Z,6.30
2022-11-29T20:16:32.505Z,6.30
2022-11-29T20:18:59.992Z,6.40
2022-11-29T20:21:32.771Z,6.50
2022-11-29T20:24:05.580Z,6.40
2022-11-29T20:26:36.290Z,6.50
2022-11-29T20:29:05.080Z,6.60
2022-11-29T20:31:34.431Z,6.70
2022-11-29T20:34:02.723Z,6.80
2022-11-29T20:37:19.495Z,6.90
2022-11-29T20:40:15.863Z,6.90
2022-11-29T20:43:17.550Z,6.90
2022-11-29T20:45:45.226Z,7.00
2022-11-29T20:48:25.786Z,7.00
2022-11-29T20:51:02.877Z,7.10
2022-11-29T20:53:40.582Z,7.00
2022-11-29T20:56:09.139Z,7.10
2022-11-29T20:58:36.233Z,7.10
2022-11-29T21:01:05.110Z,7.10
2022-11-29T21:03:32.684Z,7.10
2022-11-29T21:06:03.670Z,7.10
2022-11-29T21:08:31.214Z,7.20
2022-11-29T21:11:08.007Z,7.20
2022-11-29T21:13:35.894Z,7.20
2022-11-29T21:16:03.983Z,7.10
2022-11-29T21:18:32.430Z,7.10
2022-11-29T21:21:14.837Z,7.10
2022-11-29T21:23:51.996Z,7.10
2022-11-29T21:26:49.707Z,7.00
2022-11-29T21:29:20.840Z,7.00
2022-11-29T21:31:51.889Z,7.00
2022-11-29T21:34:20.341Z,7.00
2022-11-29T21:36:57.991Z,7.00
2022-11-29T21:39:33.529Z,7.00
2022-11-29T21:42:01.359Z,7.00
2022-11-29T21:44:28.480Z,7.00
2022-11-29T21:46:55.646Z,7.00
2022-11-29T21:49:22.640Z,7.00
2022-11-29T21:51:49.699Z,7.00
2022-11-29T21:54:16.930Z,7.00
2022-11-29T21:56:44.314Z,7.10
2022-11-29T21:59:11.360Z,7.10
2022-11-29T22:01:42.837Z,7.10
2022-11-29T22:04:10.505Z,7.00
2022-11-29T22:06:37.836Z,7.10
2022-11-29T22:09:05.472Z,7.10
2022-11-29T22:11:34.323Z,7.20
2022-11-29T22:14:14.624Z,7.20
2022-11-29T22:16:59.700Z,7.20
2022-11-29T22:19:33.878Z,7.20
2022-11-29T22:22:07.089Z,7.20
2022-11-29T22:24:36.665Z,7.20
2022-11-29T22:27:04.032Z,7.20
2022-11-29T22:29:31.366Z,7.20
2022-11-29T22:31:59.538Z,7.20
2022-11-29T22:34:27.847Z,7.20
2022-11-29T22:36:55.351Z,7.30
2022-11-29T22:39:22.651Z,7.30
2022-11-29T22:41:54.319Z,7.30
2022-11-29T22:44:23.894Z,7.40
2022-11-29T22:46:51.721Z,7.30
2022-11-29T22:49:19.153Z,7.30
2022-11-29T22:51:46.754Z,7.30
2022-11-29T22:54:16.439Z,7.20
2022-11-29T22:56:45.515Z,7.30
2022-11-29T22:59:12.551Z,7.30
2022-11-29T23:01:42.028Z,7.30
2022-11-29T23:04:11.332Z,7.20
2022-11-29T23:06:44.251Z,7.30
2022-11-29T23:09:16.597Z,7.30
2022-11-29T23:11:45.583Z,7.30
2022-11-29T23:14:13.109Z,7.20
2022-11-29T23:16:41.389Z,7.30
2022-11-29T23:19:09.127Z,7.30
2022-11-29T23:21:40.741Z,7.20
2022-11-29T23:24:08.424Z,7.30
2022-11-29T23:26:40.274Z,7.20
2022-11-29T23:29:11.916Z,7.30
2022-11-29T23:31:39.688Z,7.30
2022-11-29T23:34:07.771Z,7.30
2022-11-29T23:36:35.638Z,7.30
2022-11-29T23:39:03.002Z,7.30
2022-11-29T23:41:30.073Z,7.30
2022-11-29T23:43:57.380Z,7.30
2022-11-29T23:46:24.654Z,7.30
2022-11-29T23:48:52.306Z,7.20
2022-11-29T23:51:21.161Z,7.30
2022-11-29T23:53:53.174Z,7.30
2022-11-29T23:56:21.325Z,7.30
2022-11-29T23:58:48.742Z,7.30
